createdAt,value
2022-08-08T00:00:51.801Z,95553
2022-08-08T00:03:20.466Z,95556
2022-08-08T00:06:42.454Z,95555
2022-08-08T00:10:07.823Z,95546
2022-08-08T00:14:15.974Z,95555
2022-08-08T00:16:58.436Z,95550
2022-08-08T00:20:23.731Z,95553
2022-08-08T00:23:51.261Z,95550
2022-08-08T00:27:14.342Z,95548
2022-08-08T00:30:45.075Z,95558
2022-08-08T00:34:17.747Z,95563
2022-08-08T00:37:45.598Z,95558
2022-08-08T00:41:08.364Z,95552
2022-08-08T00:44:20.923Z,95556
2022-08-08T00:48:01.819Z,95556
2022-08-08T00:51:15.342Z,95564
2022-08-08T00:54:36.841Z,95559
2022-08-08T00:58:02.139Z,95559
2022-08-08T01:01:29.225Z,95554
2022-08-08T01:04:52.769Z,95553
2022-08-08T01:08:18.111Z,95557
2022-08-08T01:11:43.458Z,95559
2022-08-08T01:15:08.736Z,95556
2022-08-08T01:18:50.885Z,95552
2022-08-08T01:22:03.946Z,95561
2022-08-08T01:25:26.120Z,95562
2022-08-08T01:28:51.385Z,95558
2022-08-08T01:32:17.438Z,95564
2022-08-08T01:35:40.744Z,95568
2022-08-08T01:39:05.960Z,95565
2022-08-08T01:42:35.408Z,95564
2022-08-08T01:45:56.733Z,95565
2022-08-08T01:49:23.154Z,95563
2022-08-08T01:52:52.205Z,95561
2022-08-08T01:56:28.039Z,95556
2022-08-08T01:59:37.894Z,95557
2022-08-08T02:03:03.030Z,95552
2022-08-08T02:06:31.501Z,95553
2022-08-08T02:10:02.933Z,95554
2022-08-08T02:13:53.426Z,95551
2022-08-08T02:16:44.210Z,95555
2022-08-08T02:20:16.030Z,95554
2022-08-08T02:23:35.197Z,95553
2022-08-08T02:27:00.937Z,95552
2022-08-08T02:30:25.690Z,95555
2022-08-08T02:34:00.875Z,95556
2022-08-08T02:37:51.689Z,95554
2022-08-08T02:40:41.335Z,95558
2022-08-08T02:44:36.091Z,95555
2022-08-08T02:47:32.029Z,95562
2022-08-08T02:50:57.165Z,95561
2022-08-08T02:54:22.464Z,95555
2022-08-08T02:57:50.632Z,95557
2022-08-08T03:01:14.801Z,95561
2022-08-08T03:05:02.278Z,95561
2022-08-08T03:08:03.672Z,95567
2022-08-08T03:11:31.897Z,95568
2022-08-08T03:15:55.358Z,95571
2022-08-08T03:18:30.854Z,95567
2022-08-08T03:21:55.029Z,95574
2022-08-08T03:25:14.919Z,95565
2022-08-08T03:28:35.417Z,95570
2022-08-08T03:32:05.661Z,95568
2022-08-08T03:35:27.273Z,95572
2022-08-08T03:38:53.294Z,95566
2022-08-08T03:42:28.903Z,95571
2022-08-08T03:46:03.875Z,95566
2022-08-08T03:49:10.291Z,95568
2022-08-08T03:52:35.544Z,95574
2022-08-08T03:56:04.346Z,95575
2022-08-08T03:59:26.259Z,95577
2022-08-08T04:02:51.939Z,95580
2022-08-08T04:06:14.868Z,95577
2022-08-08T04:09:57.501Z,95575
2022-08-08T04:13:17.766Z,95577
2022-08-08T04:16:38.689Z,95579
2022-08-08T04:19:56.029Z,95583
2022-08-08T04:23:21.301Z,95582
2022-08-08T04:26:57.910Z,95586
2022-08-08T04:30:17.679Z,95592
2022-08-08T04:33:38.693Z,95599
2022-08-08T04:37:03.669Z,95600
2022-08-08T04:40:27.808Z,95597
2022-08-08T04:43:57.173Z,95605
2022-08-08T04:47:18.316Z,95607
2022-08-08T04:50:44.450Z,95614
2022-08-08T04:54:37.335Z,95615
2022-08-08T04:57:34.635Z,95619
2022-08-08T05:00:59.495Z,95621
2022-08-08T05:04:24.921Z,95619
2022-08-08T05:07:50.201Z,95625
2022-08-08T05:11:22.949Z,95628
2022-08-08T05:14:40.664Z,95627
2022-08-08T05:18:05.955Z,95628
2022-08-08T05:21:31.248Z,95628
2022-08-08T05:24:56.554Z,95633
2022-08-08T05:28:48.492Z,95638
2022-08-08T05:32:02.768Z,95639
2022-08-08T05:35:13.440Z,95644
2022-08-08T05:38:37.748Z,95643
2022-08-08T05:42:03.013Z,95641
2022-08-08T05:45:31.554Z,95641
2022-08-08T05:48:54.324Z,95647
2022-08-08T05:52:18.924Z,95644
2022-08-08T05:56:07.605Z,95643
2022-08-08T05:59:12.595Z,95649
2022-08-08T06:02:34.860Z,95653
2022-08-08T06:06:01.266Z,95653
2022-08-08T06:09:42.111Z,95655
2022-08-08T06:12:50.623Z,95658
2022-08-08T06:16:15.871Z,95663
2022-08-08T06:19:41.153Z,95669
2022-08-08T06:23:06.405Z,95667
2022-08-08T06:26:35.491Z,95673
2022-08-08T06:29:56.989Z,95675
2022-08-08T06:33:36.759Z,95672
2022-08-08T06:36:53.439Z,95676
2022-08-08T06:40:16.378Z,95676
2022-08-08T06:43:38.131Z,95678
2022-08-08T06:47:03.448Z,95675
2022-08-08T06:50:31.614Z,95679
2022-08-08T06:53:56.074Z,95681
2022-08-08T06:57:19.380Z,95680
2022-08-08T07:00:44.658Z,95673
2022-08-08T07:04:39.221Z,95673
2022-08-08T07:07:36.947Z,95674
2022-08-08T07:11:00.741Z,95680
2022-08-08T07:14:25.886Z,95682
2022-08-08T07:17:56.755Z,95685
2022-08-08T07:21:18.825Z,95682
2022-08-08T07:24:41.763Z,95684
2022-08-08T07:28:07.596Z,95693
2022-08-08T07:31:35.252Z,95688
2022-08-08T07:35:00.671Z,95690
2022-08-08T07:38:24.853Z,95694
2022-08-08T07:41:58.553Z,95689
2022-08-08T07:45:13.629Z,95695
2022-08-08T07:48:39.105Z,95698
2022-08-08T07:52:04.499Z,95692
2022-08-08T07:55:29.786Z,95697
2022-08-08T07:58:55.099Z,95697
2022-08-08T08:02:33.778Z,95698
2022-08-08T08:05:50.706Z,95702
2022-08-08T08:09:10.993Z,95702
2022-08-08T08:12:42.220Z,95710
2022-08-08T08:16:01.586Z,95706
2022-08-08T08:19:26.861Z,95704
2022-08-08T08:22:52.185Z,95703
2022-08-08T08:26:18.058Z,95703
2022-08-08T08:29:42.935Z,95701
2022-08-08T08:33:10.974Z,95706
2022-08-08T08:36:33.641Z,95707
2022-08-08T08:39:59.601Z,95708
2022-08-08T08:43:26.610Z,95710
2022-08-08T08:46:50.857Z,95712
2022-08-08T08:50:17.258Z,95710
2022-08-08T08:53:55.622Z,95708
2022-08-08T08:57:07.813Z,95714
2022-08-08T09:00:44.524Z,95710
2022-08-08T09:03:56.498Z,95710
2022-08-08T09:07:21.811Z,95710
2022-08-08T09:10:47.935Z,95716
2022-08-08T09:14:12.527Z,95716
2022-08-08T09:17:41.406Z,95716
2022-08-08T09:21:55.330Z,95710
2022-08-08T09:24:28.597Z,95712
2022-08-08T09:27:56.590Z,95713
2022-08-08T09:31:19.438Z,95710
2022-08-08T09:34:45.657Z,95698
2022-08-08T09:38:10.147Z,95704
2022-08-08T09:41:54.650Z,95703
2022-08-08T09:45:03.759Z,95702
2022-08-08T09:48:35.224Z,95700
2022-08-08T09:52:02.121Z,95705
2022-08-08T09:55:31.082Z,95704
2022-08-08T09:58:44.794Z,95701
2022-08-08T10:02:13.058Z,95701
2022-08-08T10:05:33.150Z,95695
2022-08-08T10:08:58.427Z,95697
2022-08-08T10:12:28.498Z,95692
2022-08-08T10:15:59.586Z,95693
2022-08-08T10:19:14.461Z,95697
2022-08-08T10:22:39.797Z,95690
2022-08-08T10:26:05.161Z,95686
2022-08-08T10:29:38.060Z,95689
2022-08-08T10:32:55.892Z,95691
2022-08-08T10:36:22.782Z,95690
2022-08-08T10:39:54.006Z,95687
2022-08-08T10:43:12.010Z,95678
2022-08-08T10:46:37.393Z,95677
2022-08-08T10:50:03.115Z,95680
2022-08-08T10:53:39.471Z,95675
2022-08-08T10:56:53.711Z,95673
2022-08-08T11:00:20.605Z,95669
2022-08-08T11:03:52.680Z,95665
2022-08-08T11:07:13.880Z,95674
2022-08-08T11:10:36.857Z,95664
2022-08-08T11:14:02.214Z,95666
2022-08-08T11:17:57.918Z,95659
2022-08-08T11:20:52.927Z,95661
2022-08-08T11:24:18.313Z,95654
2022-08-08T11:27:44.453Z,95644
2022-08-08T11:31:09.693Z,95644
2022-08-08T11:34:52.364Z,95645
2022-08-08T11:38:34.980Z,95646
2022-08-08T11:41:27.792Z,95657
2022-08-08T11:44:51.728Z,95650
2022-08-08T11:48:20.516Z,95649
2022-08-08T11:51:50.130Z,95653
2022-08-08T11:55:07.692Z,95651
2022-08-08T11:58:33.045Z,95653
2022-08-08T12:02:15.181Z,95647
2022-08-08T12:05:24.791Z,95655
2022-08-08T12:08:48.986Z,95650
2022-08-08T12:12:16.899Z,95653
2022-08-08T12:15:40.275Z,95644
2022-08-08T12:19:05.823Z,95647
2022-08-08T12:22:39.650Z,95648
2022-08-08T12:25:56.679Z,95644
2022-08-08T12:29:21.159Z,95634
2022-08-08T12:32:46.281Z,95637
2022-08-08T12:36:11.619Z,95643
2022-08-08T12:39:56.337Z,95642
2022-08-08T12:43:02.315Z,95635
2022-08-08T12:46:28.888Z,95635
2022-08-08T12:49:52.978Z,95636
2022-08-08T12:53:18.311Z,95633
2022-08-08T12:56:43.649Z,95631
2022-08-08T13:00:12.297Z,95639
2022-08-08T13:03:34.334Z,95638
2022-08-08T13:07:00.552Z,95640
2022-08-08T13:10:27.907Z,95628
2022-08-08T13:13:50.418Z,95628
2022-08-08T13:17:54.755Z,95632
2022-08-08T13:20:41.157Z,95631
2022-08-08T13:24:06.549Z,95628
2022-08-08T13:27:35.723Z,95626
2022-08-08T13:30:57.272Z,95622
2022-08-08T13:34:29.560Z,95618
2022-08-08T13:37:52.359Z,95610
2022-08-08T13:41:16.312Z,95615
2022-08-08T13:44:38.865Z,95618
2022-08-08T13:48:04.264Z,95615
2022-08-08T13:51:34.380Z,95621
2022-08-08T13:54:54.972Z,95615
2022-08-08T13:58:20.500Z,95611
2022-08-08T14:01:53.210Z,95615
2022-08-08T14:05:20.785Z,95614
2022-08-08T14:08:36.489Z,95618
2022-08-08T14:12:01.872Z,95617
2022-08-08T14:15:31.287Z,95622
2022-08-08T14:18:53.554Z,95613
2022-08-08T14:22:18.513Z,95614
2022-08-08T14:25:43.317Z,95612
2022-08-08T14:29:11.768Z,95617
2022-08-08T15:09:54.973Z,95618
2022-08-08T15:13:21.640Z,95622
2022-08-08T15:17:05.154Z,95626
2022-08-08T15:20:30.693Z,95618
2022-08-08T15:23:56.286Z,95617
2022-08-08T15:27:58.047Z,95624
2022-08-08T15:30:48.787Z,95617
2022-08-08T15:34:18.326Z,95617
2022-08-08T15:37:38.486Z,95614
2022-08-08T15:41:04.004Z,95619
2022-08-08T15:44:29.573Z,95618
2022-08-08T15:48:04.267Z,95617
2022-08-08T15:51:20.641Z,95614
2022-08-08T15:54:47.737Z,95612
2022-08-08T15:58:11.714Z,95616
2022-08-08T16:01:40.389Z,95612
2022-08-08T16:05:03.970Z,95615
2022-08-08T16:08:28.311Z,95611
2022-08-08T16:13:06.237Z,95609
2022-08-08T16:15:19.767Z,95614
2022-08-08T16:18:53.089Z,95611
2022-08-08T16:22:11.667Z,95611
2022-08-08T16:25:45.610Z,95608
2022-08-08T16:29:02.351Z,95609
2022-08-08T16:32:27.862Z,95616
2022-08-08T16:35:53.146Z,95611
2022-08-08T16:39:28.257Z,95616
2022-08-08T16:42:43.925Z,95615
2022-08-08T16:46:38.019Z,95618
2022-08-08T16:49:36.224Z,95619
2022-08-08T16:54:58.245Z,95620
2022-08-08T16:56:25.745Z,95617
2022-08-08T16:59:52.483Z,95620
2022-08-08T17:03:16.411Z,95618
2022-08-08T17:06:43.583Z,95615
2022-08-08T17:10:07.033Z,95616
2022-08-08T17:13:40.788Z,95621
2022-08-08T17:16:59.004Z,95618
2022-08-08T17:20:23.175Z,95615
2022-08-08T17:23:58.684Z,95629
2022-08-08T17:27:13.827Z,95627
2022-08-08T17:30:39.151Z,95625
2022-08-08T17:34:35.449Z,95633
2022-08-08T17:37:32.600Z,95637
2022-08-08T17:40:55.256Z,95634
2022-08-08T17:44:20.631Z,95636
2022-08-08T17:47:46.301Z,95640
2022-08-08T17:51:11.333Z,95645
2022-08-08T17:54:36.674Z,95648
2022-08-08T17:58:02.243Z,95651
2022-08-08T18:01:29.763Z,95654
2022-08-08T18:04:53.503Z,95659
2022-08-08T18:08:24.387Z,95666
2022-08-08T18:11:44.265Z,95668
2022-08-08T18:15:09.680Z,95671
2022-08-08T18:18:39.442Z,95675
2022-08-08T18:22:02.335Z,95673
2022-08-08T18:25:25.591Z,95680
2022-08-08T18:28:52.409Z,95684
2022-08-08T18:32:16.214Z,95690
2022-08-08T18:35:47.502Z,95690
2022-08-08T18:39:06.902Z,95694
2022-08-08T18:42:32.213Z,95699
2022-08-08T18:46:52.541Z,95703
2022-08-08T18:49:22.980Z,95708
2022-08-08T18:53:21.228Z,95711
2022-08-08T18:56:48.429Z,95716
2022-08-08T19:00:17.082Z,95726
2022-08-08T19:04:01.581Z,95730
2022-08-08T19:07:14.409Z,95729
2022-08-08T19:10:41.288Z,95741
2022-08-08T19:14:05.063Z,95742
2022-08-08T19:17:47.720Z,95746
2022-08-08T19:20:55.743Z,95759
2022-08-08T19:24:34.085Z,95754
2022-08-08T19:27:56.696Z,95761
2022-08-08T19:31:12.952Z,95761
2022-08-08T19:34:38.962Z,95766
2022-08-08T19:38:02.364Z,95764
2022-08-08T19:41:27.724Z,95769
2022-08-08T19:44:53.078Z,95772
2022-08-08T19:48:28.383Z,95776
2022-08-08T19:51:45.060Z,95777
2022-08-08T19:55:09.098Z,95775
2022-08-08T19:58:34.503Z,95776
2022-08-08T20:02:02.807Z,95777
2022-08-08T20:06:13.164Z,95773
2022-08-08T20:08:50.738Z,95775
2022-08-08T20:12:15.682Z,95776
2022-08-08T20:15:52.856Z,95772
2022-08-08T20:19:06.500Z,95774
2022-08-08T20:22:33.020Z,95772
2022-08-08T20:25:56.919Z,95776
2022-08-08T20:29:22.167Z,95774
2022-08-08T20:32:47.491Z,95777
2022-08-08T20:36:16.671Z,95780
2022-08-08T20:39:39.539Z,95776
2022-08-08T20:43:03.416Z,95780
2022-08-08T20:46:29.347Z,95781
2022-08-08T20:49:55.953Z,95779
2022-08-08T20:53:57.656Z,95778
2022-08-08T20:57:04.124Z,95788
2022-08-08T21:00:10.006Z,95785
2022-08-08T21:03:56.189Z,95785
2022-08-08T21:07:00.590Z,95786
2022-08-08T21:10:28.193Z,95784
2022-08-08T21:13:52.460Z,95787
2022-08-08T21:17:16.528Z,95779
2022-08-08T21:20:42.172Z,95778
2022-08-08T21:24:15.919Z,95779
2022-08-08T21:27:48.550Z,95781
2022-08-08T21:30:57.738Z,95777
2022-08-08T21:34:23.099Z,95785
2022-08-08T21:37:53.413Z,95789
2022-08-08T21:41:18.571Z,95782
2022-08-08T21:44:38.985Z,95789
2022-08-08T21:48:11.347Z,95791
2022-08-08T21:54:19.776Z,95786
2022-08-08T21:55:02.687Z,95788
2022-08-08T21:58:20.173Z,95793
2022-08-08T22:01:45.441Z,95790
2022-08-08T22:05:10.687Z,95792
2022-08-08T22:08:37.142Z,95801
2022-08-08T22:12:03.235Z,95797
2022-08-08T22:15:26.420Z,95793
2022-08-08T22:18:52.690Z,95793
2022-08-08T22:22:16.954Z,95795
2022-08-08T22:26:20.519Z,95800
2022-08-08T22:29:15.213Z,95802
2022-08-08T22:32:32.779Z,95799
2022-08-08T22:36:03.660Z,95797
2022-08-08T22:39:23.247Z,95799
2022-08-08T22:42:48.487Z,95798
2022-08-08T22:46:13.742Z,95795
2022-08-08T22:49:40.623Z,95794
2022-08-08T22:54:29.009Z,95789
2022-08-08T22:56:29.544Z,95790
2022-08-08T22:59:59.177Z,95791
2022-08-08T23:03:20.104Z,95790
2022-08-08T23:06:45.281Z,95791
2022-08-08T23:10:10.512Z,95793
2022-08-08T23:13:41.840Z,95793
2022-08-08T23:17:01.025Z,95795
2022-08-08T23:20:27.108Z,95801
2022-08-08T23:23:56.018Z,95802
2022-08-08T23:27:17.450Z,95799
2022-08-08T23:30:42.026Z,95794
2022-08-08T23:34:16.059Z,95795
2022-08-08T23:37:37.531Z,95796
2022-08-08T23:40:57.730Z,95795
2022-08-08T23:44:23.835Z,95795
2022-08-08T23:48:59.190Z,95792
2022-08-08T23:51:27.561Z,95791
2022-08-08T23:54:42.566Z,95787
2022-08-08T23:58:03.965Z,95790
